Time;durP1;ratioP1;P1;durP2;ratioP2;P2;SDS_P1;SDS_P2;PMS_P1;PMS_P2;Temp;Humidity;BMP_temperature;BMP_pressure;BME280_temperature;BME280_humidity;BME280_pressure;Samples;Min_cycle;Max_cycle;Signal;HPM_P1;HPM_P2
2022/08/27 00:07:14;;;;;;;14.43;13.00;;;;;20.70;98630.00;;;;16738647;28;20669;-49
2022/08/27 00:15:18;;;;;;;15.03;13.60;;;;;20.70;98625.00;;;;16789601;28;20752;-49
2022/08/27 00:23:21;;;;;;;17.63;15.90;;;;;21.10;98617.00;;;;16788498;28;20319;-48
2022/08/27 00:31:24;;;;;;;18.97;17.07;;;;;20.90;98612.00;;;;16787652;28;20319;-49
2022/08/27 00:39:27;;;;;;;21.43;19.00;;;;;21.20;98619.00;;;;16786898;28;20721;-49
2022/08/27 00:47:32;;;;;;;20.70;18.27;;;;;21.20;98616.00;;;;16786181;28;20713;-49
2022/08/27 00:55:40;;;;;;;21.97;20.03;;;;;21.10;98622.00;;;;16784767;28;20831;-49
2022/08/27 01:03:46;;;;;;;22.03;20.03;;;;;21.50;98616.00;;;;16785614;28;20217;-49
2022/08/27 01:11:51;;;;;;;25.73;23.33;;;;;21.20;98615.00;;;;16784663;28;20495;-47
2022/08/27 01:19:55;;;;;;;26.93;24.43;;;;;21.00;98605.00;;;;16784716;28;20646;-48
2022/08/27 01:28:01;;;;;;;30.23;27.13;;;;;21.00;98595.00;;;;16783990;28;20657;-49
2022/08/27 01:36:05;;;;;;;28.30;25.50;;;;;21.00;98593.00;;;;16783812;28;20209;-48
2022/08/27 01:44:08;;;;;;;31.07;27.80;;;;;21.10;98598.00;;;;16783355;28;20327;-47
2022/08/27 01:52:11;;;;;;;30.50;27.70;;;;;21.20;98597.00;;;;16783677;28;20315;-49
2022/08/27 02:00:19;;;;;;;34.53;30.93;;;;;21.60;98598.00;;;;16783394;28;20316;-48
2022/08/27 02:08:22;;;;;;;31.67;28.80;;;;;21.10;98595.00;;;;16786192;28;20201;-48
2022/08/27 02:16:25;;;;;;;31.03;27.97;;;;;20.80;98596.00;;;;16796304;28;20345;-49
2022/08/27 02:24:28;;;;;;;32.40;29.30;;;;;21.00;98590.00;;;;16771759;28;20232;-49
2022/08/27 02:32:32;;;;;;;28.90;26.17;;;;;21.20;98585.00;;;;16728693;28;20218;-48
2022/08/27 02:40:34;;;;;;;31.10;27.80;;;;;21.90;98590.00;;;;16728718;28;20214;-49
2022/08/27 02:48:39;;;;;;;29.87;26.90;;;;;21.30;98595.00;;;;16710203;28;20697;-47
2022/08/27 02:56:41;;;;;;;29.50;26.50;;;;;21.60;98591.00;;;;16725588;28;20277;-48
2022/08/27 03:04:46;;;;;;;27.60;25.10;;;;;21.30;98590.00;;;;16726692;28;20232;-48
2022/08/27 03:12:49;;;;;;;30.90;27.87;;;;;21.40;98588.00;;;;16725569;28;20218;-48
2022/08/27 03:20:55;;;;;;;30.93;27.90;;;;;21.30;98591.00;;;;16725490;28;20229;-48
2022/08/27 03:28:58;;;;;;;31.37;28.27;;;;;21.20;98595.00;;;;16725411;28;20217;-48
2022/08/27 03:37:02;;;;;;;31.33;28.33;;;;;21.10;98588.00;;;;16724762;28;20190;-48
2022/08/27 03:45:05;;;;;;;32.30;29.40;;;;;21.40;98590.00;;;;16724573;28;20336;-48
2022/08/27 03:53:10;;;;;;;32.53;29.57;;;;;21.50;98586.00;;;;16769539;22;20238;-85
2022/08/27 04:01:12;;;;;;;32.97;29.77;;;;;21.40;98573.00;;;;16742137;28;20249;-85
2022/08/27 04:09:16;;;;;;;36.60;33.10;;;;;21.50;98568.00;;;;16758529;28;20221;-85
2022/08/27 04:17:19;;;;;;;33.60;30.30;;;;;21.60;98566.00;;;;16791313;28;20751;-85
2022/08/27 04:25:22;;;;;;;29.07;26.20;;;;;21.30;98579.00;;;;16786492;28;20225;-85
2022/08/27 04:33:26;;;;;;;30.60;26.33;;;;;21.30;98586.00;;;;16788837;28;20197;-86
2022/08/27 04:41:32;;;;;;;34.00;30.47;;;;;21.30;98575.00;;;;16814393;28;20221;-86
2022/08/27 04:49:34;;;;;;;37.60;33.80;;;;;21.40;98582.00;;;;16794794;28;20236;-85
2022/08/27 04:57:38;;;;;;;38.80;35.10;;;;;21.40;98579.00;;;;16819682;28;20220;-86
2022/08/27 05:05:42;;;;;;;44.03;39.30;;;;;21.50;98585.00;;;;16735563;28;20640;-85
2022/08/27 05:13:46;;;;;;;41.87;37.50;;;;;21.50;98595.00;;;;16724061;28;20202;-86
2022/08/27 05:21:51;;;;;;;45.97;38.40;;;;;21.50;98586.00;;;;16723419;28;20229;-85
2022/08/27 05:29:55;;;;;;;44.63;40.30;;;;;21.70;98579.00;;;;16722884;28;20317;-84
2022/08/27 05:37:58;;;;;;;40.67;36.57;;;;;22.20;98577.00;;;;16719877;28;20263;-85
2022/08/27 05:46:05;;;;;;;39.93;36.03;;;;;21.90;98575.00;;;;16720040;28;20872;-85
2022/08/27 05:54:13;;;;;;;39.17;35.47;;;;;21.70;98580.00;;;;16720351;28;20244;-85
2022/08/27 06:02:17;;;;;;;42.70;38.10;;;;;21.50;98587.00;;;;16730896;28;20252;-85
2022/08/27 06:10:20;;;;;;;42.50;38.27;;;;;21.70;98587.00;;;;16743146;28;20237;-85
2022/08/27 06:18:24;;;;;;;39.47;35.57;;;;;21.70;98587.00;;;;16787099;28;20217;-85
2022/08/27 06:26:27;;;;;;;42.30;38.17;;;;;21.90;98595.00;;;;16777333;22;20359;-49
2022/08/27 06:34:30;;;;;;;42.33;38.00;;;;;21.90;98596.00;;;;16704315;28;20219;-51
2022/08/27 06:42:33;;;;;;;42.33;37.80;;;;;21.80;98595.00;;;;16650253;28;20241;-52
2022/08/27 06:50:40;;;;;;;43.93;39.83;;;;;21.90;98597.00;;;;16651454;28;20229;-51
2022/08/27 06:58:43;;;;;;;40.70;36.57;;;;;22.20;98606.00;;;;16659691;28;20890;-51
2022/08/27 07:06:47;;;;;;;40.83;36.87;;;;;22.30;98603.00;;;;16662047;28;20226;-51
2022/08/27 07:14:50;;;;;;;40.60;36.57;;;;;22.10;98603.00;;;;16661941;28;20219;-52
2022/08/27 07:22:57;;;;;;;42.07;37.87;;;;;22.60;98604.00;;;;16660779;28;20234;-51
2022/08/27 07:30:59;;;;;;;43.20;38.57;;;;;22.10;98614.00;;;;16660974;28;20758;-52
2022/08/27 07:39:03;;;;;;;40.30;36.30;;;;;22.50;98605.00;;;;16660490;28;20573;-52
2022/08/27 07:47:06;;;;;;;40.23;36.00;;;;;22.50;98624.00;;;;16659964;28;20222;-51
2022/08/27 07:55:11;;;;;;;39.10;35.07;;;;;22.50;98631.00;;;;16658419;28;20584;-52
2022/08/27 08:03:13;;;;;;;38.10;34.30;;;;;22.30;98630.00;;;;16658874;28;20710;-51
2022/08/27 08:11:18;;;;;;;39.33;35.63;;;;;23.10;98635.00;;;;16657774;28;20221;-51
2022/08/27 08:19:21;;;;;;;36.90;33.47;;;;;22.40;98640.00;;;;16658498;28;20218;-52
2022/08/27 08:27:25;;;;;;;37.37;33.70;;;;;22.40;98644.00;;;;16657113;28;20226;-52
2022/08/27 08:35:27;;;;;;;39.13;35.20;;;;;22.10;98655.00;;;;16656945;28;20222;-52
2022/08/27 08:43:34;;;;;;;38.17;34.47;;;;;22.80;98652.00;;;;16655273;28;20238;-52
2022/08/27 08:51:40;;;;;;;43.43;39.07;;;;;22.80;98656.00;;;;16656296;28;20229;-49
2022/08/27 08:59:47;;;;;;;44.97;40.77;;;;;23.30;98668.00;;;;16654941;28;20223;-50
2022/08/27 09:07:58;;;;;;;47.47;42.33;;;;;22.30;98669.00;;;;16654612;28;20317;-52
2022/08/27 09:16:03;;;;;;;44.20;39.73;;;;;23.10;98667.00;;;;16653710;28;20218;-52
2022/08/27 09:24:10;;;;;;;40.00;36.00;;;;;22.70;98677.00;;;;16653984;28;20707;-52
2022/08/27 09:32:14;;;;;;;36.73;33.27;;;;;22.90;98666.00;;;;16653837;28;20575;-52
2022/08/27 09:40:19;;;;;;;38.27;34.67;;;;;22.30;98667.00;;;;16653493;28;20217;-51
2022/08/27 09:48:26;;;;;;;35.33;31.87;;;;;22.30;98671.00;;;;16653552;28;20227;-51
2022/08/27 09:56:31;;;;;;;29.83;26.97;;;;;22.20;98678.00;;;;16653844;28;20676;-50
2022/08/27 10:04:40;;;;;;;27.23;24.83;;;;;22.10;98657.00;;;;16653450;28;20262;-50
2022/08/27 10:12:53;;;;;;;24.80;22.70;;;;;21.90;98661.00;;;;16652094;28;20301;-49
2022/08/27 10:21:04;;;;;;;23.40;21.40;;;;;22.00;98663.00;;;;16652453;28;20309;-50
2022/08/27 10:29:13;;;;;;;21.07;19.17;;;;;22.60;98656.00;;;;16654576;28;20459;-51
2022/08/27 10:37:24;;;;;;;22.97;20.97;;;;;22.60;98664.00;;;;16664108;28;20569;-51
2022/08/27 10:45:40;;;;;;;24.40;22.30;;;;;22.70;98670.00;;;;16663375;28;20321;-51
2022/08/27 10:53:50;;;;;;;24.40;22.10;;;;;23.20;98678.00;;;;16662677;28;20230;-51
2022/08/27 11:02:02;;;;;;;24.90;22.57;;;;;22.40;98681.00;;;;16661984;28;20226;-51
2022/08/27 11:10:08;;;;;;;25.97;23.47;;;;;22.60;98684.00;;;;16663086;28;20764;-51
2022/08/27 11:18:15;;;;;;;26.60;24.00;;;;;22.50;98681.00;;;;16662092;28;20195;-51
2022/08/27 11:26:19;;;;;;;27.80;25.30;;;;;22.90;98680.00;;;;16661528;28;20223;-51
2022/08/27 11:34:25;;;;;;;32.47;29.27;;;;;22.30;98689.00;;;;16660520;28;20211;-51
2022/08/27 11:42:36;;;;;;;31.43;28.63;;;;;22.50;98688.00;;;;16659668;28;20263;-49
2022/08/27 11:50:39;;;;;;;34.03;30.93;;;;;22.80;98681.00;;;;16659908;28;20294;-51
2022/08/27 11:58:44;;;;;;;32.03;29.07;;;;;22.40;98673.00;;;;16659004;28;20285;-50
2022/08/27 12:06:51;;;;;;;36.77;33.37;;;;;22.60;98671.00;;;;16658799;28;20288;-51
2022/08/27 12:15:03;;;;;;;31.63;28.73;;;;;22.50;98664.00;;;;16658835;28;20667;-51
2022/08/27 12:31:38;;;;;;;33.27;30.27;;;;;23.00;98656.00;;;;16665443;28;20222;-51
2022/08/27 12:39:48;;;;;;;29.07;26.37;;;;;24.10;98657.00;;;;16656505;28;20325;-51
2022/08/27 12:47:53;;;;;;;28.50;25.87;;;;;25.10;98663.00;;;;16656581;28;20629;-51
2022/08/27 12:56:03;;;;;;;29.13;26.50;;;;;23.70;98658.00;;;;16654266;28;20641;-50
2022/08/27 13:04:07;;;;;;;31.93;28.93;;;;;24.20;98649.00;;;;16654770;28;20239;-51
2022/08/27 13:12:17;;;;;;;33.00;28.93;;;;;23.60;98643.00;;;;16654820;28;20219;-49
2022/08/27 13:20:23;;;;;;;32.83;29.80;;;;;23.90;98642.00;;;;16654179;28;20223;-51
2022/08/27 13:28:28;;;;;;;33.17;30.07;;;;;23.70;98643.00;;;;16653880;28;20222;-49
2022/08/27 13:36:35;;;;;;;31.43;28.63;;;;;24.60;98651.00;;;;16652930;28;20219;-50
2022/08/27 13:44:40;;;;;;;30.93;28.13;;;;;24.80;98647.00;;;;16649778;28;20226;-50
2022/08/27 14:01:10;;;;;;;25.80;23.43;;;;;25.00;98631.00;;;;16651720;28;20636;-50
2022/08/27 14:09:16;;;;;;;23.33;21.13;;;;;26.50;98627.00;;;;16665439;28;20223;-51
2022/08/27 14:17:22;;;;;;;6.83;6.27;;;;;26.50;98616.00;;;;16665937;28;20210;-49
2022/08/27 14:25:26;;;;;;;6.13;5.63;;;;;27.80;98620.00;;;;16664468;28;20313;-51
2022/08/27 14:33:29;;;;;;;6.60;6.10;;;;;27.20;98610.00;;;;16664313;28;20219;-50
2022/08/27 14:41:33;;;;;;;6.70;6.20;;;;;27.30;98609.00;;;;16663609;28;20214;-51
2022/08/27 14:49:38;;;;;;;8.87;8.07;;;;;28.60;98602.00;;;;16663693;28;20221;-50
2022/08/27 14:57:41;;;;;;;10.77;9.87;;;;;27.90;98602.00;;;;16662767;28;20564;-49
2022/08/27 15:05:44;;;;;;;11.10;10.20;;;;;27.80;98609.00;;;;16662950;28;20272;-49
2022/08/27 15:13:48;;;;;;;14.23;13.03;;;;;27.30;98609.00;;;;16660733;28;20227;-49
2022/08/27 15:21:52;;;;;;;13.57;12.47;;;;;27.30;98617.00;;;;16661541;28;20721;-50
2022/08/27 15:29:56;;;;;;;11.17;10.33;;;;;27.50;98621.00;;;;16661055;28;20313;-49
2022/08/27 15:37:59;;;;;;;12.27;11.27;;;;;27.30;98611.00;;;;16661204;28;20663;-48
2022/08/27 15:46:04;;;;;;;13.40;12.27;;;;;27.60;98612.00;;;;16660422;28;20231;-50
2022/08/27 15:54:06;;;;;;;13.80;12.70;;;;;27.70;98604.00;;;;16745233;22;20248;-50
2022/08/27 16:02:15;;;;;;;14.67;13.17;;;;;26.50;98602.00;;;;16768156;28;20327;-47
2022/08/27 16:10:18;;;;;;;15.20;13.90;;;;;25.90;98601.00;;;;16723972;28;20549;-48
2022/08/27 16:18:24;;;;;;;18.63;17.00;;;;;25.00;98611.00;;;;16724192;28;20186;-48
2022/08/27 16:26:27;;;;;;;18.33;16.63;;;;;24.90;98623.00;;;;16721556;28;20569;-48
2022/08/27 16:34:31;;;;;;;18.30;16.73;;;;;24.60;98617.00;;;;16705527;28;20682;-48
2022/08/27 16:42:33;;;;;;;17.50;15.77;;;;;25.30;98626.00;;;;16704193;28;20260;-49
2022/08/27 16:50:37;;;;;;;17.90;16.20;;;;;24.80;98627.00;;;;16721330;28;20732;-49
2022/08/27 16:58:39;;;;;;;23.90;21.70;;;;;24.70;98634.00;;;;16720124;28;20494;-48
2022/08/27 17:06:44;;;;;;;26.07;23.73;;;;;24.60;98621.00;;;;16720817;28;20312;-49
2022/08/27 17:14:46;;;;;;;34.03;30.90;;;;;24.40;98638.00;;;;16719762;28;20229;-48
2022/08/27 17:22:50;;;;;;;32.17;29.07;;;;;24.30;98648.00;;;;16718927;28;20216;-48
2022/08/27 17:30:52;;;;;;;35.17;31.90;;;;;24.00;98650.00;;;;16719518;28;20216;-48
2022/08/27 17:38:57;;;;;;;32.80;29.73;;;;;24.10;98646.00;;;;16718044;28;20347;-48
2022/08/27 17:47:01;;;;;;;32.47;29.20;;;;;23.90;98655.00;;;;16718115;28;20297;-48
2022/08/27 17:55:06;;;;;;;33.13;29.97;;;;;23.50;98645.00;;;;16717549;28;20312;-48
2022/08/27 18:03:15;;;;;;;34.50;31.20;;;;;22.80;98650.00;;;;16718322;28;20485;-48
2022/08/27 18:11:19;;;;;;;33.73;30.10;;;;;22.50;98670.00;;;;16716575;28;20313;-46
2022/08/27 18:19:21;;;;;;;35.27;32.07;;;;;22.30;98678.00;;;;16699532;28;20229;-47
2022/08/27 18:27:28;;;;;;;38.63;35.03;;;;;21.80;98689.00;;;;16712414;28;20315;-48
2022/08/27 18:35:32;;;;;;;39.33;35.50;;;;;21.90;98697.00;;;;16715656;28;20236;-48
2022/08/27 18:43:36;;;;;;;40.83;37.10;;;;;21.60;98706.00;;;;16715406;28;20222;-48
2022/08/27 18:51:40;;;;;;;41.90;37.50;;;;;21.20;98726.00;;;;16721196;28;20225;-49
2022/08/27 18:59:44;;;;;;;45.27;40.57;;;;;21.20;98724.00;;;;16728232;28;20273;-48
2022/08/27 19:07:46;;;;;;;43.10;38.60;;;;;21.10;98727.00;;;;16728347;28;20226;-48
2022/08/27 19:15:54;;;;;;;43.00;38.90;;;;;20.90;98741.00;;;;16727339;28;20206;-48
2022/08/27 19:23:56;;;;;;;45.30;39.93;;;;;20.80;98735.00;;;;16726432;28;20232;-48
2022/08/27 19:32:00;;;;;;;46.67;41.87;;;;;20.90;98743.00;;;;16725905;28;20217;-49
2022/08/27 19:40:03;;;;;;;45.90;41.23;;;;;20.80;98755.00;;;;16725425;28;20218;-49
2022/08/27 19:48:13;;;;;;;47.23;42.33;;;;;20.80;98762.00;;;;16725820;28;20313;-48
2022/08/27 19:56:16;;;;;;;43.40;38.90;;;;;20.70;98763.00;;;;16724348;28;20237;-49
2022/08/27 20:04:20;;;;;;;45.73;40.83;;;;;20.60;98751.00;;;;16723846;28;20269;-49
2022/08/27 20:12:22;;;;;;;41.53;37.30;;;;;20.50;98750.00;;;;16723260;28;20222;-49
2022/08/27 20:20:27;;;;;;;46.40;41.80;;;;;20.50;98753.00;;;;16723084;28;20209;-48
2022/08/27 20:28:29;;;;;;;52.60;39.57;;;;;20.30;98757.00;;;;16722818;28;20229;-49
2022/08/27 20:36:33;;;;;;;45.80;39.97;;;;;20.60;98755.00;;;;16722854;28;20305;-49
2022/08/27 20:44:35;;;;;;;42.70;38.50;;;;;20.60;98751.00;;;;16721812;28;20312;-49
2022/08/27 20:52:40;;;;;;;43.93;39.30;;;;;20.40;98747.00;;;;16720891;28;20228;-48
2022/08/27 21:00:43;;;;;;;39.37;35.57;;;;;20.30;98744.00;;;;16720318;28;20213;-49
2022/08/27 21:08:47;;;;;;;43.97;39.17;;;;;20.10;98753.00;;;;16719762;28;20308;-48
2022/08/27 21:16:49;;;;;;;43.07;38.63;;;;;20.20;98759.00;;;;16718931;28;20219;-49
2022/08/27 21:24:53;;;;;;;43.13;38.73;;;;;20.50;98763.00;;;;16719542;28;20214;-49
2022/08/27 21:32:56;;;;;;;43.03;38.40;;;;;20.30;98764.00;;;;16719120;28;20309;-49
2022/08/27 21:41:00;;;;;;;42.60;38.40;;;;;20.30;98764.00;;;;16718548;28;20218;-49
2022/08/27 21:49:03;;;;;;;44.90;40.13;;;;;20.30;98772.00;;;;16718016;28;20221;-48
2022/08/27 21:57:08;;;;;;;42.50;37.90;;;;;20.10;98765.00;;;;16746416;22;20237;-52
2022/08/27 22:05:11;;;;;;;42.27;37.73;;;;;20.20;98771.00;;;;16674738;28;20237;-52
2022/08/27 22:13:15;;;;;;;41.73;37.03;;;;;20.20;98760.00;;;;16651113;28;20291;-52
2022/08/27 22:21:18;;;;;;;43.97;39.37;;;;;20.40;98767.00;;;;16652645;28;20226;-51
2022/08/27 22:29:23;;;;;;;48.30;43.00;;;;;20.60;98770.00;;;;16701867;28;20229;-50
2022/08/27 22:37:25;;;;;;;46.27;40.73;;;;;20.30;98764.00;;;;16730834;28;20214;-50
2022/08/27 22:45:29;;;;;;;49.33;42.50;;;;;20.40;98772.00;;;;16729630;28;20384;-50
2022/08/27 22:53:32;;;;;;;45.13;40.23;;;;;20.50;98752.00;;;;16729364;28;20321;-50
2022/08/27 23:01:36;;;;;;;47.17;41.97;;;;;20.40;98757.00;;;;16696154;28;20942;-50
2022/08/27 23:09:38;;;;;;;44.23;38.83;;;;;20.20;98752.00;;;;16663024;28;20232;-50
2022/08/27 23:17:42;;;;;;;47.80;42.60;;;;;20.40;98749.00;;;;16661943;28;20233;-50
2022/08/27 23:34:06;;;;;;;48.90;42.80;;;;;20.50;98748.00;;;;16660852;28;20253;-50
2022/08/27 23:42:08;;;;;;;43.47;37.80;;;;;20.30;98751.00;;;;16658768;28;20309;-51
2022/08/27 23:50:12;;;;;;;46.17;40.87;;;;;20.20;98757.00;;;;16660147;28;20428;-50
2022/08/27 23:58:15;;;;;;;40.53;36.33;;;;;20.20;98755.00;;;;16659782;28;20233;-51
